Kezdőlap
METAR-TAF:

METAR-TAF

Repülőterek :

Belfast, Észak-Írország

földrajzi szélesség: 54-36N, földrajzi hosszúság: 005-53W, magasság: 5 m

Jelenlegi meteorológiai megfigyelések

A jelentés 43 perccel ezelõtt készült, 08:50 UTC
Nyugat-délnyugati szél 7 kt, délnyugati és északnyugati között változik
Hőmérséklet 12°C
Páratartalom 76%
Légköri nyomás 994 hPa
Látótávolság 10 km, vagy több

METAR: EGAC 140850Z AUTO 25007KT 220V310 9999 NCD 12/08 Q0994

Idő: 10:33 (09:33 UTC)

Előrejelzés

A jelentés 1 órával és 32 perccel ezelõtt készült, 08:01 UTC
Az előrejelzés 14-én 09 óra UTC és 14-én 18 óra UTC között érvényes
Délnyugati szél 9 kt
Látótávolság 10 km, vagy több
Szórványos felhőzet 3500 lábon
14-én 09 óra UTC és 14-én 18 óra UTC között ideiglenes
Látótávolság: 6000 m
záporok,

TAF: EGAC 140801Z 1409/1418 23009KT 9999 SCT035 TEMPO 1409/1418 6000 SHRA

Meteorológiai megfigyelések és előrejelzések több, mint 4000 repülőtéren (METAR és TAF jelentéseket).

A térképen piros és sárga pontok jelzik az elérhető meteorológiai állomásokat.

Mozgassa az egeret a pont fölött, hogy megjelenjen az állomás neve.

Azután kattintson az időjárási megfigyelések és előrejelzések megtekintéséhez.

A térkép megváltoztatása: kattintson a fekete keresztel jelölt zöld gombra ráközelítéshez, a vonallal jelölt zöld gombra távolításhoz, vagy a zöld nyilakra a szomszédos térképek eléréséhez.


METAR-TAF: